SKW4054 KSLC-KTUS
Flight info
| Callsign | SKW4054 |
|---|---|
| Flight time | 1h 18m |
| Altitude | 33000 |
| Route | ARCHZ1 MLF BCE CORKR PXR DINGO6 |
| Aircraft | E75L/M-SDE3GILORVW/S |
Departure
| Time | 2026-05-06 23:21 |
|---|---|
| Airport | Salt Lake City International Airport (KSLC) |
Arrival
| Time | 2026-05-07 00:39 |
|---|---|
| Airport | Tucson International Airport (KTUS) |
| Time | Latitude | Longitude | Altitude | Speed | Heading |
|---|---|---|---|---|---|
| 2026-05-06 22:56 | 40.78653 | -111.98030 | 4229 ft | 0 kts | 175° |
| 2026-05-06 22:59 | 40.78654 | -111.98030 | 4229 ft | 0 kts | 175° |
| 2026-05-06 23:09 | 40.78673 | -111.98032 | 4229 ft | 4 kts | 175° |
| 2026-05-06 23:09 | 40.78694 | -111.98035 | 4229 ft | 4 kts | 167° |
| 2026-05-06 23:10 | 40.78716 | -111.98053 | 4229 ft | 4 kts | 131° |
| 2026-05-06 23:10 | 40.78730 | -111.98075 | 4229 ft | 2 kts | 130° |
| 2026-05-06 23:10 | 40.78731 | -111.98077 | 4229 ft | 0 kts | 130° |
| 2026-05-06 23:12 | 40.78730 | -111.98074 | 4229 ft | 1 kts | 115° |
| 2026-05-06 23:12 | 40.78733 | -111.98055 | 4229 ft | 4 kts | 76° |
| 2026-05-06 23:12 | 40.78738 | -111.98016 | 4229 ft | 5 kts | 84° |
| 2026-05-06 23:13 | 40.78742 | -111.97964 | 4229 ft | 6 kts | 85° |
| 2026-05-06 23:13 | 40.78747 | -111.97896 | 4229 ft | 8 kts | 85° |
| 2026-05-06 23:13 | 40.78752 | -111.97813 | 4229 ft | 10 kts | 85° |
| 2026-05-06 23:13 | 40.78753 | -111.97716 | 4229 ft | 11 kts | 112° |
| 2026-05-06 23:14 | 40.78690 | -111.97674 | 4229 ft | 11 kts | 175° |
| 2026-05-06 23:14 | 40.78608 | -111.97663 | 4229 ft | 13 kts | 173° |
| 2026-05-06 23:14 | 40.78517 | -111.97653 | 4228 ft | 14 kts | 175° |
| 2026-05-06 23:14 | 40.78415 | -111.97641 | 4228 ft | 15 kts | 176° |
| 2026-05-06 23:15 | 40.78304 | -111.97629 | 4228 ft | 16 kts | 174° |
| 2026-05-06 23:15 | 40.78186 | -111.97614 | 4228 ft | 18 kts | 177° |
| 2026-05-06 23:15 | 40.78061 | -111.97601 | 4241 ft | 19 kts | 173° |
| 2026-05-06 23:15 | 40.77936 | -111.97579 | 4264 ft | 18 kts | 161° |
| 2026-05-06 23:16 | 40.77818 | -111.97522 | 4263 ft | 19 kts | 174° |
| 2026-05-06 23:16 | 40.77687 | -111.97508 | 4263 ft | 19 kts | 175° |
| 2026-05-06 23:16 | 40.77552 | -111.97492 | 4263 ft | 20 kts | 175° |
| 2026-05-06 23:16 | 40.77463 | -111.97478 | 4263 ft | 5 kts | 150° |
| 2026-05-06 23:17 | 40.77460 | -111.97474 | 4263 ft | 0 kts | 135° |
| 2026-05-06 23:20 | 40.77453 | -111.97463 | 4263 ft | 5 kts | 126° |
| 2026-05-06 23:20 | 40.77457 | -111.97393 | 4263 ft | 12 kts | 56° |
| 2026-05-06 23:20 | 40.77527 | -111.97324 | 4263 ft | 13 kts | 7° |
| 2026-05-06 23:20 | 40.77571 | -111.97328 | 4263 ft | 0 kts | 354° |
| 2026-05-06 23:21 | 40.77618 | -111.97334 | 4263 ft | 30 kts | 355° |
| 2026-05-06 23:21 | 40.78058 | -111.97387 | 4263 ft | 96 kts | 354° |
| 2026-05-06 23:21 | 40.78912 | -111.97487 | 4252 ft | 148 kts | 355° |
| 2026-05-06 23:21 | 40.79973 | -111.97570 | 4918 ft | 155 kts | 353° |
| 2026-05-06 23:22 | 40.81033 | -111.97844 | 5604 ft | 158 kts | 333° |
| 2026-05-06 23:22 | 40.81868 | -111.98822 | 6006 ft | 169 kts | 297° |
| 2026-05-06 23:22 | 40.82150 | -112.00336 | 6566 ft | 177 kts | 269° |
| 2026-05-06 23:22 | 40.81964 | -112.01985 | 7150 ft | 186 kts | 257° |
| 2026-05-06 23:23 | 40.81549 | -112.03693 | 7511 ft | 205 kts | 256° |
| 2026-05-06 23:23 | 40.81053 | -112.05524 | 7899 ft | 219 kts | 252° |
| 2026-05-06 23:23 | 40.80447 | -112.07466 | 8221 ft | 241 kts | 250° |
| 2026-05-06 23:23 | 40.79789 | -112.09612 | 8574 ft | 263 kts | 252° |
| 2026-05-06 23:24 | 40.79102 | -112.11913 | 9059 ft | 282 kts | 253° |
| 2026-05-06 23:24 | 40.78370 | -112.14393 | 9633 ft | 299 kts | 252° |
| 2026-05-06 23:24 | 40.77604 | -112.16987 | 10340 ft | 312 kts | 253° |
| 2026-05-06 23:24 | 40.76809 | -112.19767 | 10651 ft | 336 kts | 253° |
| 2026-05-06 23:25 | 40.75967 | -112.22732 | 11112 ft | 351 kts | 253° |
| 2026-05-06 23:25 | 40.74732 | -112.25557 | 11914 ft | 365 kts | 230° |
| 2026-05-06 23:25 | 40.72580 | -112.27394 | 12840 ft | 378 kts | 200° |
| 2026-05-06 23:25 | 40.70033 | -112.28088 | 13972 ft | 379 kts | 191° |
| 2026-05-06 23:26 | 40.67413 | -112.28673 | 14858 ft | 384 kts | 192° |
| 2026-05-06 23:26 | 40.64765 | -112.29312 | 15732 ft | 389 kts | 192° |
| 2026-05-06 23:26 | 40.62066 | -112.29936 | 16584 ft | 396 kts | 191° |
| 2026-05-06 23:26 | 40.59320 | -112.30513 | 17296 ft | 403 kts | 189° |
| 2026-05-06 23:27 | 40.56525 | -112.31054 | 17990 ft | 409 kts | 191° |
| 2026-05-06 23:27 | 40.53743 | -112.31950 | 18620 ft | 415 kts | 198° |
| 2026-05-06 23:27 | 40.50981 | -112.33123 | 19316 ft | 419 kts | 200° |
| 2026-05-06 23:27 | 40.48195 | -112.34310 | 20038 ft | 424 kts | 199° |
| 2026-05-06 23:28 | 40.45410 | -112.35462 | 20762 ft | 428 kts | 199° |
| 2026-05-06 23:28 | 40.42550 | -112.36640 | 21410 ft | 433 kts | 199° |
| 2026-05-06 23:28 | 40.39657 | -112.37831 | 22041 ft | 438 kts | 199° |
| 2026-05-06 23:28 | 40.36732 | -112.39030 | 22632 ft | 443 kts | 199° |
| 2026-05-06 23:29 | 40.33778 | -112.40238 | 23225 ft | 446 kts | 199° |
| 2026-05-06 23:29 | 40.30798 | -112.41454 | 23772 ft | 451 kts | 199° |
| 2026-05-06 23:29 | 40.27798 | -112.42683 | 24248 ft | 454 kts | 199° |
| 2026-05-06 23:29 | 40.24766 | -112.43921 | 24743 ft | 458 kts | 199° |
| 2026-05-06 23:30 | 40.21715 | -112.45166 | 25250 ft | 462 kts | 199° |
| 2026-05-06 23:30 | 40.18683 | -112.46418 | 25723 ft | 463 kts | 201° |
| 2026-05-06 23:30 | 40.15753 | -112.48116 | 26358 ft | 459 kts | 210° |
| 2026-05-06 23:30 | 40.12961 | -112.50128 | 26996 ft | 457 kts | 212° |
| 2026-05-06 23:31 | 40.10189 | -112.52167 | 27590 ft | 457 kts | 212° |
| 2026-05-06 23:31 | 40.07404 | -112.54174 | 28188 ft | 457 kts | 212° |
| 2026-05-06 23:31 | 40.04614 | -112.56156 | 28788 ft | 456 kts | 211° |
| 2026-05-06 23:31 | 40.01818 | -112.58122 | 29353 ft | 456 kts | 211° |
| 2026-05-06 23:32 | 39.99029 | -112.60084 | 29916 ft | 456 kts | 212° |
| 2026-05-06 23:32 | 39.96276 | -112.62018 | 30435 ft | 455 kts | 212° |
| 2026-05-06 23:32 | 39.93494 | -112.63971 | 30944 ft | 454 kts | 212° |
| 2026-05-06 23:32 | 39.90719 | -112.65913 | 31424 ft | 452 kts | 211° |
| 2026-05-06 23:33 | 39.87947 | -112.67852 | 31886 ft | 452 kts | 212° |
| 2026-05-06 23:33 | 39.85180 | -112.69788 | 32350 ft | 451 kts | 212° |
| 2026-05-06 23:33 | 39.82424 | -112.71713 | 32814 ft | 450 kts | 212° |
| 2026-05-06 23:33 | 39.79669 | -112.73636 | 33260 ft | 449 kts | 212° |
| 2026-05-06 23:34 | 39.76879 | -112.75585 | 33239 ft | 460 kts | 212° |
| 2026-05-06 23:34 | 39.71163 | -112.79569 | 33213 ft | 478 kts | 211° |
| 2026-05-06 23:34 | 39.68140 | -112.81489 | 33117 ft | 491 kts | 203° |
| 2026-05-06 23:35 | 39.64784 | -112.82524 | 33134 ft | 501 kts | 189° |
| 2026-05-06 23:35 | 39.57769 | -112.83480 | 33106 ft | 510 kts | 187° |
| 2026-05-06 23:36 | 39.50697 | -112.84467 | 33112 ft | 512 kts | 187° |
| 2026-05-06 23:36 | 39.43661 | -112.85486 | 33110 ft | 512 kts | 187° |
| 2026-05-06 23:37 | 39.36586 | -112.86524 | 33082 ft | 511 kts | 187° |
| 2026-05-06 23:37 | 39.29517 | -112.87554 | 33078 ft | 511 kts | 187° |
| 2026-05-06 23:38 | 39.22447 | -112.88587 | 33068 ft | 511 kts | 187° |
| 2026-05-06 23:38 | 39.15431 | -112.89622 | 33084 ft | 511 kts | 187° |
| 2026-05-06 23:39 | 39.08373 | -112.90667 | 33085 ft | 511 kts | 187° |
| 2026-05-06 23:39 | 39.01309 | -112.91710 | 33082 ft | 511 kts | 187° |
| 2026-05-06 23:40 | 38.94254 | -112.92748 | 33089 ft | 510 kts | 187° |
| 2026-05-06 23:40 | 38.87200 | -112.93781 | 33081 ft | 510 kts | 187° |
| 2026-05-06 23:41 | 38.80144 | -112.94818 | 33085 ft | 510 kts | 187° |
| 2026-05-06 23:41 | 38.73143 | -112.95843 | 33088 ft | 510 kts | 186° |
| 2026-05-06 23:42 | 38.66099 | -112.96874 | 33128 ft | 510 kts | 186° |
| 2026-05-06 23:42 | 38.59048 | -112.97898 | 33150 ft | 510 kts | 186° |
| 2026-05-06 23:43 | 38.52051 | -112.98918 | 33175 ft | 510 kts | 186° |
| 2026-05-06 23:43 | 38.45004 | -112.99938 | 33178 ft | 510 kts | 186° |
| 2026-05-06 23:44 | 38.37948 | -113.00522 | 33185 ft | 508 kts | 172° |
| 2026-05-06 23:44 | 38.34574 | -112.99315 | 33201 ft | 502 kts | 151° |
| 2026-05-06 23:44 | 38.31708 | -112.96860 | 33218 ft | 495 kts | 137° |
| 2026-05-06 23:45 | 38.26541 | -112.91184 | 33131 ft | 493 kts | 135° |
| 2026-05-06 23:45 | 38.21299 | -112.85535 | 33108 ft | 494 kts | 136° |
| 2026-05-06 23:46 | 38.16022 | -112.79927 | 33091 ft | 494 kts | 136° |
| 2026-05-06 23:46 | 38.10733 | -112.74318 | 33070 ft | 497 kts | 136° |
| 2026-05-06 23:47 | 38.05458 | -112.68750 | 33058 ft | 496 kts | 136° |
| 2026-05-06 23:47 | 38.00146 | -112.63154 | 33061 ft | 496 kts | 136° |
| 2026-05-06 23:48 | 37.94845 | -112.57581 | 33050 ft | 495 kts | 136° |
| 2026-05-06 23:48 | 37.89546 | -112.52018 | 33050 ft | 495 kts | 136° |
| 2026-05-06 23:49 | 37.84240 | -112.46460 | 33087 ft | 495 kts | 136° |
| 2026-05-06 23:49 | 37.78977 | -112.40955 | 33115 ft | 493 kts | 136° |
| 2026-05-06 23:50 | 37.73678 | -112.35430 | 33151 ft | 494 kts | 136° |
| 2026-05-06 23:50 | 37.67778 | -112.30980 | 33170 ft | 506 kts | 162° |
| 2026-05-06 23:50 | 37.64276 | -112.30451 | 33200 ft | 511 kts | 179° |
| 2026-05-06 23:51 | 37.57151 | -112.31027 | 33099 ft | 513 kts | 183° |
| 2026-05-06 23:51 | 37.50071 | -112.31565 | 33068 ft | 514 kts | 182° |
| 2026-05-06 23:52 | 37.42927 | -112.31999 | 33026 ft | 514 kts | 181° |
| 2026-05-06 23:52 | 37.35785 | -112.32416 | 32954 ft | 515 kts | 181° |
| 2026-05-06 23:53 | 37.28643 | -112.32836 | 32975 ft | 513 kts | 181° |
| 2026-05-06 23:53 | 37.21494 | -112.33251 | 32964 ft | 515 kts | 181° |
| 2026-05-06 23:54 | 37.14390 | -112.33660 | 32971 ft | 514 kts | 181° |
| 2026-05-06 23:54 | 37.07257 | -112.34073 | 32963 ft | 513 kts | 181° |
| 2026-05-06 23:55 | 37.00124 | -112.34483 | 32968 ft | 513 kts | 181° |
| 2026-05-06 23:55 | 36.92996 | -112.34896 | 32985 ft | 513 kts | 181° |
| 2026-05-06 23:56 | 36.85874 | -112.35308 | 32975 ft | 512 kts | 181° |
| 2026-05-06 23:56 | 36.78800 | -112.35714 | 32982 ft | 512 kts | 181° |
| 2026-05-06 23:57 | 36.71680 | -112.36126 | 32991 ft | 512 kts | 181° |
| 2026-05-06 23:57 | 36.64577 | -112.36527 | 33027 ft | 511 kts | 180° |
| 2026-05-06 23:58 | 36.57472 | -112.36937 | 33006 ft | 511 kts | 180° |
| 2026-05-06 23:58 | 36.50370 | -112.37342 | 33026 ft | 511 kts | 180° |
| 2026-05-06 23:59 | 36.43327 | -112.37744 | 33001 ft | 509 kts | 180° |
| 2026-05-06 23:59 | 36.36266 | -112.38146 | 33047 ft | 510 kts | 180° |
| 2026-05-07 00:00 | 36.29178 | -112.38549 | 33013 ft | 509 kts | 180° |
| 2026-05-07 00:00 | 36.23299 | -112.38882 | 33042 ft | 510 kts | 180° |
| 2026-05-07 00:01 | 36.15012 | -112.39350 | 33059 ft | 510 kts | 180° |
| 2026-05-07 00:01 | 36.07981 | -112.39602 | 33102 ft | 506 kts | 173° |
| 2026-05-07 00:02 | 36.00989 | -112.38564 | 33082 ft | 505 kts | 169° |
| 2026-05-07 00:02 | 35.94034 | -112.37380 | 33096 ft | 504 kts | 169° |
| 2026-05-07 00:03 | 35.87072 | -112.36224 | 33114 ft | 505 kts | 169° |
| 2026-05-07 00:03 | 35.83595 | -112.35652 | 32996 ft | 505 kts | 169° |
| 2026-05-07 00:03 | 35.80157 | -112.35088 | 33004 ft | 505 kts | 169° |
| 2026-05-07 00:04 | 35.73204 | -112.33952 | 33007 ft | 504 kts | 169° |
| 2026-05-07 00:04 | 35.66261 | -112.32819 | 33011 ft | 503 kts | 169° |
| 2026-05-07 00:05 | 35.59314 | -112.31690 | 33063 ft | 504 kts | 169° |
| 2026-05-07 00:05 | 35.52430 | -112.30570 | 33098 ft | 501 kts | 168° |
| 2026-05-07 00:06 | 35.45523 | -112.29448 | 33134 ft | 501 kts | 168° |
| 2026-05-07 00:06 | 35.38611 | -112.28328 | 33163 ft | 501 kts | 168° |
| 2026-05-07 00:07 | 35.31706 | -112.27224 | 33173 ft | 501 kts | 168° |
| 2026-05-07 00:07 | 35.24847 | -112.26109 | 33176 ft | 500 kts | 168° |
| 2026-05-07 00:08 | 35.17954 | -112.24992 | 33146 ft | 500 kts | 168° |
| 2026-05-07 00:08 | 35.14499 | -112.24441 | 32989 ft | 501 kts | 168° |
| 2026-05-07 00:08 | 35.11046 | -112.23887 | 32973 ft | 499 kts | 168° |
| 2026-05-07 00:09 | 35.04169 | -112.22780 | 32988 ft | 499 kts | 168° |
| 2026-05-07 00:09 | 34.97294 | -112.21677 | 32971 ft | 498 kts | 168° |
| 2026-05-07 00:10 | 34.90457 | -112.20580 | 32981 ft | 499 kts | 168° |
| 2026-05-07 00:10 | 34.83607 | -112.19484 | 33003 ft | 495 kts | 168° |
| 2026-05-07 00:11 | 34.76765 | -112.18393 | 33022 ft | 496 kts | 168° |
| 2026-05-07 00:11 | 34.69928 | -112.17299 | 33030 ft | 495 kts | 168° |
| 2026-05-07 00:12 | 34.63109 | -112.16213 | 33017 ft | 491 kts | 168° |
| 2026-05-07 00:12 | 34.56395 | -112.15152 | 33012 ft | 490 kts | 168° |
| 2026-05-07 00:13 | 34.49630 | -112.14079 | 32991 ft | 491 kts | 168° |
| 2026-05-07 00:13 | 34.42854 | -112.13005 | 32952 ft | 491 kts | 168° |
| 2026-05-07 00:14 | 34.36135 | -112.11943 | 32954 ft | 486 kts | 169° |
| 2026-05-07 00:14 | 34.29457 | -112.10891 | 32954 ft | 487 kts | 169° |
| 2026-05-07 00:15 | 34.22740 | -112.09834 | 32961 ft | 487 kts | 169° |
| 2026-05-07 00:15 | 34.16028 | -112.08776 | 32940 ft | 483 kts | 171° |
| 2026-05-07 00:16 | 34.09363 | -112.07731 | 32964 ft | 484 kts | 171° |
| 2026-05-07 00:16 | 34.02700 | -112.06688 | 32950 ft | 483 kts | 171° |
| 2026-05-07 00:17 | 33.96076 | -112.05651 | 32955 ft | 483 kts | 171° |
| 2026-05-07 00:17 | 33.89413 | -112.04609 | 32952 ft | 483 kts | 171° |
| 2026-05-07 00:18 | 33.82744 | -112.03569 | 32954 ft | 484 kts | 171° |
| 2026-05-07 00:18 | 33.76073 | -112.02533 | 32956 ft | 483 kts | 171° |
| 2026-05-07 00:19 | 33.69462 | -112.01502 | 32964 ft | 479 kts | 172° |
| 2026-05-07 00:19 | 33.62853 | -112.00475 | 32975 ft | 478 kts | 172° |
| 2026-05-07 00:20 | 33.56246 | -111.99452 | 32979 ft | 479 kts | 172° |
| 2026-05-07 00:20 | 33.49635 | -111.98428 | 32942 ft | 480 kts | 172° |
| 2026-05-07 00:21 | 33.43151 | -111.97433 | 32936 ft | 464 kts | 175° |
| 2026-05-07 00:21 | 33.39963 | -111.96812 | 32954 ft | 468 kts | 162° |
| 2026-05-07 00:21 | 33.37025 | -111.95123 | 32967 ft | 471 kts | 151° |
| 2026-05-07 00:22 | 33.34155 | -111.93250 | 32707 ft | 467 kts | 155° |
| 2026-05-07 00:22 | 33.31156 | -111.91906 | 32316 ft | 452 kts | 164° |
| 2026-05-07 00:22 | 33.28146 | -111.91000 | 31649 ft | 444 kts | 167° |
| 2026-05-07 00:22 | 33.25127 | -111.90412 | 31118 ft | 435 kts | 174° |
| 2026-05-07 00:23 | 33.22127 | -111.90261 | 30529 ft | 428 kts | 180° |
| 2026-05-07 00:23 | 33.19168 | -111.90336 | 29951 ft | 422 kts | 181° |
| 2026-05-07 00:23 | 33.16263 | -111.90475 | 29415 ft | 414 kts | 181° |
| 2026-05-07 00:23 | 33.13437 | -111.90599 | 28856 ft | 412 kts | 181° |
| 2026-05-07 00:24 | 33.10555 | -111.90709 | 28341 ft | 418 kts | 180° |
| 2026-05-07 00:24 | 33.07620 | -111.90811 | 27755 ft | 425 kts | 180° |
| 2026-05-07 00:24 | 33.04649 | -111.90902 | 27172 ft | 428 kts | 180° |
| 2026-05-07 00:24 | 33.01664 | -111.90978 | 26612 ft | 430 kts | 179° |
| 2026-05-07 00:25 | 32.98673 | -111.91039 | 26033 ft | 429 kts | 180° |
| 2026-05-07 00:25 | 32.95702 | -111.91089 | 25486 ft | 425 kts | 180° |
| 2026-05-07 00:25 | 32.92747 | -111.91124 | 24911 ft | 425 kts | 179° |
| 2026-05-07 00:25 | 32.89804 | -111.91035 | 24378 ft | 421 kts | 171° |
| 2026-05-07 00:26 | 32.87057 | -111.90108 | 23835 ft | 415 kts | 152° |
| 2026-05-07 00:26 | 32.84644 | -111.88290 | 23271 ft | 408 kts | 142° |
| 2026-05-07 00:26 | 32.82372 | -111.86296 | 22757 ft | 404 kts | 141° |
| 2026-05-07 00:26 | 32.80121 | -111.84317 | 22199 ft | 401 kts | 142° |
| 2026-05-07 00:27 | 32.77875 | -111.82367 | 21666 ft | 399 kts | 142° |
| 2026-05-07 00:27 | 32.75629 | -111.80436 | 21141 ft | 398 kts | 144° |
| 2026-05-07 00:27 | 32.73374 | -111.78512 | 20611 ft | 400 kts | 145° |
| 2026-05-07 00:27 | 32.71114 | -111.76597 | 20085 ft | 398 kts | 146° |
| 2026-05-07 00:28 | 32.68892 | -111.74724 | 19573 ft | 395 kts | 146° |
| 2026-05-07 00:28 | 32.66663 | -111.72843 | 19041 ft | 392 kts | 146° |
| 2026-05-07 00:28 | 32.64449 | -111.70981 | 18476 ft | 389 kts | 146° |
| 2026-05-07 00:28 | 32.62248 | -111.69139 | 17968 ft | 385 kts | 146° |
| 2026-05-07 00:29 | 32.60068 | -111.67320 | 17486 ft | 381 kts | 146° |
| 2026-05-07 00:29 | 32.57905 | -111.65522 | 16963 ft | 379 kts | 146° |
| 2026-05-07 00:30 | 32.52436 | -111.59067 | 15471 ft | 370 kts | 126° |
| 2026-05-07 00:30 | 32.50934 | -111.56638 | 15009 ft | 364 kts | 126° |
| 2026-05-07 00:30 | 32.49441 | -111.54239 | 14563 ft | 356 kts | 126° |
| 2026-05-07 00:30 | 32.47981 | -111.51916 | 14113 ft | 347 kts | 126° |
| 2026-05-07 00:31 | 32.46553 | -111.49659 | 13630 ft | 339 kts | 126° |
| 2026-05-07 00:31 | 32.45161 | -111.47455 | 13218 ft | 329 kts | 126° |
| 2026-05-07 00:31 | 32.43807 | -111.45313 | 12780 ft | 322 kts | 126° |
| 2026-05-07 00:31 | 32.42480 | -111.43217 | 12370 ft | 315 kts | 126° |
| 2026-05-07 00:32 | 32.41200 | -111.41188 | 11951 ft | 309 kts | 125° |
| 2026-05-07 00:32 | 32.39923 | -111.39170 | 11539 ft | 304 kts | 126° |
| 2026-05-07 00:32 | 32.38667 | -111.37188 | 11144 ft | 299 kts | 125° |
| 2026-05-07 00:32 | 32.37429 | -111.35236 | 10741 ft | 294 kts | 126° |
| 2026-05-07 00:33 | 32.36207 | -111.33309 | 10355 ft | 291 kts | 124° |
| 2026-05-07 00:33 | 32.35106 | -111.31319 | 9977 ft | 288 kts | 120° |
| 2026-05-07 00:33 | 32.34094 | -111.29288 | 9564 ft | 285 kts | 120° |
| 2026-05-07 00:33 | 32.33089 | -111.27291 | 9216 ft | 281 kts | 120° |
| 2026-05-07 00:34 | 32.32070 | -111.25317 | 8821 ft | 281 kts | 121° |
| 2026-05-07 00:34 | 32.31036 | -111.23350 | 8471 ft | 282 kts | 120° |
| 2026-05-07 00:34 | 32.30010 | -111.21400 | 8082 ft | 284 kts | 120° |
| 2026-05-07 00:34 | 32.28968 | -111.19415 | 7722 ft | 285 kts | 120° |
| 2026-05-07 00:35 | 32.27917 | -111.17428 | 7343 ft | 285 kts | 120° |
| 2026-05-07 00:35 | 32.26863 | -111.15435 | 6960 ft | 286 kts | 119° |
| 2026-05-07 00:35 | 32.25813 | -111.13447 | 6591 ft | 285 kts | 121° |
| 2026-05-07 00:35 | 32.24772 | -111.11477 | 6187 ft | 279 kts | 121° |
| 2026-05-07 00:36 | 32.23781 | -111.09595 | 5809 ft | 261 kts | 121° |
| 2026-05-07 00:36 | 32.22851 | -111.07854 | 5493 ft | 248 kts | 121° |
| 2026-05-07 00:36 | 32.21948 | -111.06168 | 5187 ft | 237 kts | 122° |
| 2026-05-07 00:36 | 32.20826 | -111.04762 | 4837 ft | 235 kts | 139° |
| 2026-05-07 00:37 | 32.19630 | -111.03524 | 4610 ft | 223 kts | 132° |
| 2026-05-07 00:37 | 32.18623 | -111.02214 | 4368 ft | 210 kts | 130° |
| 2026-05-07 00:37 | 32.17610 | -111.01010 | 4090 ft | 202 kts | 135° |
| 2026-05-07 00:37 | 32.16635 | -110.99900 | 3826 ft | 188 kts | 133° |
| 2026-05-07 00:38 | 32.15785 | -110.98836 | 3606 ft | 169 kts | 131° |
| 2026-05-07 00:38 | 32.15010 | -110.97899 | 3403 ft | 155 kts | 134° |
| 2026-05-07 00:38 | 32.14249 | -110.97016 | 3169 ft | 154 kts | 135° |
| 2026-05-07 00:38 | 32.13491 | -110.96129 | 2974 ft | 154 kts | 135° |
| 2026-05-07 00:39 | 32.12724 | -110.95237 | 2753 ft | 154 kts | 134° |
| 2026-05-07 00:39 | 32.11985 | -110.94372 | 2613 ft | 142 kts | 135° |
| 2026-05-07 00:39 | 32.11366 | -110.93651 | 2608 ft | 104 kts | 134° |
| 2026-05-07 00:39 | 32.11135 | -110.93276 | 2607 ft | 19 kts | 90° |
| 2026-05-07 00:40 | 32.11205 | -110.93220 | 2607 ft | 15 kts | 319° |
| 2026-05-07 00:40 | 32.11281 | -110.93307 | 2607 ft | 16 kts | 314° |
| 2026-05-07 00:40 | 32.11365 | -110.93405 | 2607 ft | 17 kts | 315° |
| 2026-05-07 00:40 | 32.11457 | -110.93497 | 2607 ft | 18 kts | 345° |
| 2026-05-07 00:41 | 32.11583 | -110.93496 | 2604 ft | 18 kts | 346° |
| 2026-05-07 00:41 | 32.11628 | -110.93530 | 2603 ft | 4 kts | 315° |
| 2026-05-07 00:41 | 32.11630 | -110.93533 | 2603 ft | 0 kts | 315° |